Главная страница
METAR-TAF:

METAR-TAF

Аэропорты :

Роскилле, Дания

широта: 55-35N, долгота: 012-08E, высота над уровнем моря: 44 м

Текущие метеонаблюдения

Эта сводка был подготовлена 24 минут назад, в 21:50 UTC
Ветер 6 Узел от западный-юго-западный
Температура 5°C
Влажность 93%
Давление 1011 hPa
Видимость 10 км и более

METAR: EKRK 072150Z AUTO 24006KT 9999 SCT053/// OVC072/// 05/04 Q1011

Время: 00:14 (22:14 UTC)

Прогноз

Эта сводка был подготовлена 2 часа и 12 минут назад, в 20:02 UTC
Прогноз действительный с 07-го 21 UTC до 08-го 06 UTC
Ветер 5 Узел от западный
Видимость 10 км и более
небольшая облачность на высоте 3000 фута
временами
С 07-го 21 UTC до 07-го 24 UTC
Отдельные облака на высоте 2000 фута, Кучево-дождевые.
ливневые дожди

TAF: EKRK 072002Z 0721/0806 27005KT 9999 FEW030 TEMPO 0721/0724 SHRA SCT020CB

Метеонаблюдения и прогнозы для более 4000 аэропортов (сводки METAR и TAF).

Имеющиеся станции представлены на карте желтыми и красными точками.

Чтобы увидеть название станции, наведите на нее мышь.

Затем щелкните, чтобы увидеть метеонаблюдения и метеопрогнозы.

Управление картой: чтобы увеличить масштаб, щелкните зеленые кнопки с черным крестиком; чтобы уменьшить масштаб, щелкните зеленую кнопку с тире; для просмотра соседних карт щелкайте зеленые стрелки.


METAR-TAF: